createdAt,value
2022-10-07T00:01:29.406Z,17.30
2022-10-07T00:03:57.823Z,17.30
2022-10-07T00:06:26.935Z,17.30
2022-10-07T00:08:55.715Z,17.40
2022-10-07T00:11:28.141Z,17.40
2022-10-07T00:13:58.483Z,17.40
2022-10-07T00:16:29.173Z,17.40
2022-10-07T00:19:01.114Z,17.40
2022-10-07T00:21:32.139Z,17.40
2022-10-07T00:24:01.582Z,17.40
2022-10-07T00:26:33.339Z,17.40
2022-10-07T00:29:02.888Z,17.30
2022-10-07T00:31:33.131Z,17.30
2022-10-07T00:34:04.782Z,17.30
2022-10-07T00:36:35.423Z,17.30
2022-10-07T00:39:05.951Z,17.40
2022-10-07T00:41:36.949Z,17.40
2022-10-07T00:44:38.929Z,17.40
2022-10-07T00:47:14.178Z,17.40
2022-10-07T00:49:46.419Z,17.40
2022-10-07T00:52:17.856Z,17.40
2022-10-07T00:54:46.226Z,17.40
2022-10-07T00:57:15.902Z,17.30
2022-10-07T00:59:44.611Z,17.30
2022-10-07T01:02:12.909Z,17.30
2022-10-07T01:04:42.660Z,17.30
2022-10-07T01:07:11.108Z,17.30
2022-10-07T01:09:39.917Z,17.30
2022-10-07T01:12:14.766Z,17.40
2022-10-07T01:14:53.618Z,17.40
2022-10-07T01:17:28.621Z,17.40
2022-10-07T01:20:21.620Z,17.40
2022-10-07T01:23:01.181Z,17.30
2022-10-07T01:25:46.037Z,17.20
2022-10-07T01:28:20.074Z,17.20
2022-10-07T01:30:54.916Z,17.20
2022-10-07T01:33:29.447Z,17.10
2022-10-07T01:36:04.037Z,17.10
2022-10-07T01:38:35.961Z,17.00
2022-10-07T01:41:09.449Z,17.00
2022-10-07T01:43:40.523Z,17.00
2022-10-07T01:46:12.901Z,17.00
2022-10-07T01:48:42.037Z,17.00
2022-10-07T01:51:10.960Z,17.00
2022-10-07T01:53:51.958Z,17.00
2022-10-07T01:56:43.928Z,17.00
2022-10-07T01:59:41.113Z,17.00
2022-10-07T02:02:19.772Z,17.00
2022-10-07T02:04:59.229Z,17.00
2022-10-07T02:07:40.861Z,17.00
2022-10-07T02:10:14.455Z,17.00
2022-10-07T02:12:50.137Z,17.00
2022-10-07T02:15:27.185Z,17.00
2022-10-07T02:17:59.148Z,17.00
2022-10-07T02:20:32.436Z,17.00
2022-10-07T02:23:03.503Z,17.00
2022-10-07T02:25:37.556Z,17.00
2022-10-07T02:28:08.396Z,16.90
2022-10-07T02:30:40.460Z,16.90
2022-10-07T02:33:10.801Z,16.80
2022-10-07T02:35:44.634Z,16.80
2022-10-07T02:38:15.899Z,16.80
2022-10-07T02:40:54.575Z,16.80
2022-10-07T02:43:30.699Z,16.80
2022-10-07T02:46:08.225Z,16.80
2022-10-07T02:48:42.380Z,16.90
2022-10-07T02:51:21.032Z,16.90
2022-10-07T02:53:54.446Z,16.80
2022-10-07T02:56:26.903Z,16.80
2022-10-07T02:58:56.809Z,16.80
2022-10-07T03:01:31.093Z,16.90
2022-10-07T03:04:00.118Z,16.90
2022-10-07T03:06:30.451Z,16.90
2022-10-07T03:09:02.350Z,16.90
2022-10-07T03:11:30.752Z,16.90
2022-10-07T03:13:59.644Z,16.90
2022-10-07T03:16:29.374Z,16.90
2022-10-07T03:18:59.163Z,16.90
2022-10-07T03:21:33.977Z,16.80
2022-10-07T03:24:06.014Z,16.80
2022-10-07T03:26:43.245Z,16.80
2022-10-07T03:29:13.806Z,16.70
2022-10-07T03:31:43.741Z,16.70
2022-10-07T03:34:12.713Z,16.70
2022-10-07T03:36:43.527Z,16.60
2022-10-07T03:39:13.624Z,16.60
2022-10-07T03:41:43.117Z,16.60
2022-10-07T03:44:12.484Z,16.50
2022-10-07T03:46:41.103Z,16.50
2022-10-07T03:49:11.536Z,16.50
2022-10-07T03:51:39.876Z,16.60
2022-10-07T03:54:10.925Z,16.50
2022-10-07T03:56:40.737Z,16.60
2022-10-07T03:59:09.232Z,16.60
2022-10-07T04:01:38.427Z,16.60
2022-10-07T04:04:08.054Z,16.60
2022-10-07T04:06:40.242Z,16.60
2022-10-07T04:09:13.884Z,16.60
2022-10-07T04:11:43.971Z,16.60
2022-10-07T04:14:13.447Z,16.50
2022-10-07T04:16:43.338Z,16.40
2022-10-07T04:19:14.184Z,16.30
2022-10-07T04:21:45.553Z,16.20
2022-10-07T04:24:13.831Z,16.20
2022-10-07T04:26:42.661Z,16.20
2022-10-07T04:29:11.540Z,16.20
2022-10-07T04:31:40.234Z,16.30
2022-10-07T04:34:10.193Z,16.20
2022-10-07T04:36:42.367Z,16.00
2022-10-07T04:39:17.427Z,15.90
2022-10-07T04:41:54.924Z,15.70
2022-10-07T04:44:29.006Z,15.50
2022-10-07T04:47:05.459Z,15.40
2022-10-07T04:49:35.477Z,15.10
2022-10-07T04:52:06.381Z,14.90
2022-10-07T04:54:40.516Z,14.70
2022-10-07T04:57:10.024Z,14.60
2022-10-07T04:59:42.635Z,14.50
2022-10-07T05:02:15.715Z,14.50
2022-10-07T05:04:46.178Z,14.50
2022-10-07T05:07:14.786Z,14.40
2022-10-07T05:09:44.985Z,14.50
2022-10-07T05:12:17.685Z,14.60
2022-10-07T05:14:47.737Z,14.60
2022-10-07T05:17:16.896Z,14.70
2022-10-07T05:19:45.761Z,14.80
2022-10-07T05:22:14.029Z,14.90
2022-10-07T05:24:44.471Z,15.00
2022-10-07T05:27:15.070Z,15.10
2022-10-07T05:29:44.372Z,15.20
2022-10-07T05:32:13.356Z,15.20
2022-10-07T05:34:41.756Z,15.30
2022-10-07T05:37:10.745Z,15.30
2022-10-07T05:39:39.577Z,15.10
2022-10-07T05:42:16.700Z,14.70
2022-10-07T05:44:52.782Z,14.40
2022-10-07T05:47:22.188Z,14.10
2022-10-07T05:49:51.885Z,13.70
2022-10-07T05:52:21.649Z,13.30
2022-10-07T05:54:51.976Z,13.10
2022-10-07T05:57:24.105Z,12.80
2022-10-07T05:59:52.769Z,12.50
2022-10-07T06:02:23.052Z,12.30
2022-10-07T06:04:52.084Z,12.30
2022-10-07T06:07:28.299Z,12.30
2022-10-07T06:10:18.826Z,12.40
2022-10-07T06:13:07.366Z,12.60
2022-10-07T06:15:37.000Z,12.80
2022-10-07T06:18:06.340Z,12.90
2022-10-07T06:20:35.286Z,13.00
2022-10-07T06:23:04.991Z,12.90
2022-10-07T06:25:34.685Z,12.80
2022-10-07T06:28:04.360Z,12.70
2022-10-07T06:30:35.008Z,12.40
2022-10-07T06:33:04.028Z,12.30
2022-10-07T06:35:34.274Z,12.40
2022-10-07T06:38:02.554Z,12.40
2022-10-07T06:40:30.914Z,12.40
2022-10-07T06:42:59.755Z,12.30
2022-10-07T06:45:38.235Z,12.10
2022-10-07T06:48:07.082Z,12.00
2022-10-07T06:50:35.770Z,12.00
2022-10-07T06:53:05.163Z,12.10
2022-10-07T06:55:37.550Z,12.00
2022-10-07T06:58:11.479Z,12.00
2022-10-07T07:00:43.235Z,12.00
2022-10-07T07:03:12.612Z,11.80
2022-10-07T07:05:44.601Z,11.70
2022-10-07T07:08:17.190Z,11.70
2022-10-07T07:10:47.252Z,11.70
2022-10-07T07:13:16.386Z,11.80
2022-10-07T07:15:56.161Z,11.80
2022-10-07T07:18:25.292Z,12.00
2022-10-07T07:20:54.743Z,12.20
2022-10-07T07:23:24.607Z,12.30
2022-10-07T07:25:53.372Z,12.30
2022-10-07T07:28:21.779Z,12.30
2022-10-07T07:30:52.513Z,12.30
2022-10-07T07:33:20.953Z,12.40
2022-10-07T07:35:51.028Z,12.60
2022-10-07T07:38:23.422Z,12.80
2022-10-07T07:40:55.704Z,13.00
2022-10-07T07:43:24.028Z,13.00
2022-10-07T07:45:55.800Z,13.20
2022-10-07T07:48:24.141Z,13.30
2022-10-07T07:50:52.860Z,13.10
2022-10-07T07:53:22.885Z,13.00
2022-10-07T07:55:56.129Z,13.00
2022-10-07T07:58:25.813Z,13.10
2022-10-07T08:01:03.529Z,13.20
2022-10-07T08:03:32.500Z,13.20
2022-10-07T08:06:03.213Z,13.30
2022-10-07T08:08:33.077Z,13.20
2022-10-07T08:11:08.852Z,13.20
2022-10-07T08:13:39.586Z,13.40
2022-10-07T08:16:13.406Z,13.40
2022-10-07T08:18:45.875Z,13.20
2022-10-07T08:21:16.253Z,13.20
2022-10-07T08:23:44.993Z,13.40
2022-10-07T08:26:13.258Z,13.50
2022-10-07T08:28:42.216Z,13.40
2022-10-07T08:31:15.533Z,13.40
2022-10-07T08:33:45.479Z,13.50
2022-10-07T08:36:16.168Z,13.60
2022-10-07T08:38:48.745Z,13.70
2022-10-07T08:41:25.886Z,13.80
2022-10-07T08:43:56.424Z,13.90
2022-10-07T08:46:32.020Z,13.90
2022-10-07T08:49:05.031Z,14.00
2022-10-07T08:51:41.766Z,14.10
2022-10-07T08:54:15.231Z,14.30
2022-10-07T08:56:45.096Z,14.40
2022-10-07T08:59:21.366Z,14.20
2022-10-07T09:02:10.589Z,14.00
2022-10-07T09:04:48.288Z,13.80
2022-10-07T09:07:25.406Z,13.50
2022-10-07T09:09:59.713Z,13.40
2022-10-07T09:12:39.650Z,13.40
2022-10-07T09:15:18.097Z,13.60
2022-10-07T09:17:54.459Z,13.70
2022-10-07T09:20:27.829Z,13.80
2022-10-07T09:22:58.640Z,13.80
2022-10-07T09:25:28.853Z,13.90
2022-10-07T09:27:57.717Z,13.80
2022-10-07T09:30:29.540Z,14.00
2022-10-07T09:32:59.171Z,14.10
2022-10-07T09:35:31.642Z,14.20
2022-10-07T09:38:03.233Z,14.30
2022-10-07T09:40:37.724Z,14.40
2022-10-07T09:43:13.864Z,14.50
2022-10-07T09:45:47.709Z,14.50
2022-10-07T09:48:24.420Z,14.60
2022-10-07T09:50:53.001Z,14.70
2022-10-07T09:53:23.992Z,14.70
2022-10-07T09:55:54.107Z,14.80
2022-10-07T09:58:27.087Z,14.80
2022-10-07T10:00:57.785Z,14.80
2022-10-07T10:03:32.519Z,14.80
2022-10-07T10:06:02.661Z,14.90
2022-10-07T10:08:33.907Z,14.90
2022-10-07T10:11:04.880Z,14.90
2022-10-07T10:13:35.109Z,14.90
2022-10-07T10:16:05.670Z,14.80
2022-10-07T10:18:38.398Z,14.80
2022-10-07T10:21:27.647Z,14.90
2022-10-07T10:23:58.061Z,15.00
2022-10-07T10:26:57.984Z,15.20
2022-10-07T10:29:47.684Z,15.10
2022-10-07T10:32:55.707Z,15.00
2022-10-07T10:35:29.173Z,15.00
2022-10-07T10:38:06.357Z,14.80
2022-10-07T10:40:40.216Z,14.90
2022-10-07T10:43:21.926Z,15.10
2022-10-07T10:46:07.408Z,15.30
2022-10-07T10:48:42.554Z,15.50
2022-10-07T10:51:31.383Z,15.60
2022-10-07T10:54:14.351Z,15.80
2022-10-07T10:56:48.228Z,16.10
2022-10-07T10:59:34.161Z,16.30
2022-10-07T11:02:16.869Z,16.70
2022-10-07T11:04:51.212Z,17.20
2022-10-07T11:07:25.832Z,17.60
2022-10-07T11:09:59.476Z,18.10
2022-10-07T11:12:31.540Z,18.50
2022-10-07T11:15:05.684Z,18.70
2022-10-07T11:17:37.490Z,18.90
2022-10-07T11:20:17.286Z,19.10
2022-10-07T11:22:53.673Z,19.40
2022-10-07T11:25:28.929Z,19.50
2022-10-07T11:28:04.350Z,19.80
2022-10-07T11:30:49.295Z,20.10
2022-10-07T11:33:24.496Z,20.30
2022-10-07T11:35:57.519Z,20.50
2022-10-07T11:38:33.328Z,20.60
2022-10-07T11:41:05.744Z,20.60
2022-10-07T11:43:39.087Z,20.70
2022-10-07T11:50:16.791Z,20.60
2022-10-07T11:55:41.716Z,20.80
2022-10-07T11:58:25.430Z,20.80
2022-10-07T12:01:32.454Z,20.50
2022-10-07T12:04:35.298Z,20.40
2022-10-07T12:07:34.899Z,20.70
2022-10-07T12:10:25.777Z,21.10
2022-10-07T12:12:58.260Z,21.50
2022-10-07T12:15:32.787Z,21.70
2022-10-07T12:18:26.215Z,21.70
2022-10-07T12:21:05.597Z,22.00
2022-10-07T12:23:42.552Z,22.30
2022-10-07T12:26:52.075Z,22.80
2022-10-07T12:29:45.191Z,23.40
2022-10-07T12:32:49.008Z,23.90
2022-10-07T12:35:53.960Z,24.20
2022-10-07T12:38:25.981Z,24.50
2022-10-07T12:41:13.072Z,24.80
2022-10-07T12:43:56.705Z,25.30
2022-10-07T12:46:30.207Z,25.70
2022-10-07T12:49:04.047Z,26.20
2022-10-07T12:51:39.294Z,26.60
2022-10-07T12:54:15.938Z,26.90
2022-10-07T12:56:45.740Z,27.80
2022-10-07T12:59:47.639Z,28.70
2022-10-07T13:02:58.961Z,29.40
2022-10-07T13:06:09.341Z,30.30
2022-10-07T13:09:10.412Z,31.10
2022-10-07T13:12:11.488Z,31.90
2022-10-07T13:14:54.733Z,33.20
2022-10-07T13:17:36.379Z,34.30
2022-10-07T13:20:21.214Z,35.20
2022-10-07T13:22:51.281Z,36.20
2022-10-07T13:25:22.120Z,36.90
2022-10-07T13:27:54.693Z,36.70
2022-10-07T13:30:36.085Z,36.20
2022-10-07T13:33:17.440Z,35.20
2022-10-07T13:35:45.868Z,33.90
2022-10-07T13:38:26.358Z,32.60
2022-10-07T13:40:59.044Z,31.60
2022-10-07T13:43:31.107Z,31.10
2022-10-07T13:46:01.415Z,30.60
2022-10-07T13:48:35.177Z,29.90
2022-10-07T13:51:04.159Z,29.10
2022-10-07T13:53:36.829Z,28.30
2022-10-07T13:56:07.389Z,27.60
2022-10-07T13:58:37.986Z,27.20
2022-10-07T14:01:08.398Z,27.00
2022-10-07T14:04:18.045Z,26.70
2022-10-07T14:06:58.795Z,26.30
2022-10-07T14:09:44.999Z,25.80
2022-10-07T14:12:16.885Z,25.50
2022-10-07T14:14:47.500Z,25.70
2022-10-07T14:17:34.588Z,25.50
2022-10-07T14:20:05.639Z,25.00
2022-10-07T14:22:38.573Z,24.60
2022-10-07T14:25:18.901Z,24.20
2022-10-07T14:28:09.119Z,23.70
2022-10-07T14:30:57.493Z,23.30
2022-10-07T14:33:48.307Z,23.00
2022-10-07T14:36:18.561Z,22.80
2022-10-07T14:38:49.352Z,22.50
2022-10-07T14:41:23.270Z,22.30
2022-10-07T14:43:54.076Z,22.20
2022-10-07T14:46:24.306Z,22.00
2022-10-07T14:48:54.129Z,21.80
2022-10-07T14:51:25.064Z,21.70
2022-10-07T14:53:57.384Z,21.70
2022-10-07T14:56:29.986Z,21.60
2022-10-07T14:58:58.588Z,21.50
2022-10-07T15:01:29.806Z,21.40
2022-10-07T15:03:58.901Z,21.30
2022-10-07T15:06:30.635Z,21.20
2022-10-07T15:09:00.596Z,21.20
2022-10-07T15:11:31.736Z,21.10
2022-10-07T15:14:00.755Z,21.00
2022-10-07T15:16:29.139Z,20.90
2022-10-07T15:18:58.997Z,20.70
2022-10-07T15:21:29.375Z,20.60
2022-10-07T15:23:58.181Z,20.50
2022-10-07T15:26:26.691Z,20.40
2022-10-07T15:28:58.365Z,20.30
2022-10-07T15:31:29.164Z,20.30
2022-10-07T15:33:58.623Z,20.30
2022-10-07T15:36:29.059Z,20.20
2022-10-07T15:39:00.447Z,20.00
2022-10-07T15:41:40.705Z,19.90
2022-10-07T15:44:16.088Z,19.70
2022-10-07T15:46:45.907Z,19.60
2022-10-07T15:49:15.209Z,19.50
2022-10-07T15:51:43.698Z,19.50
2022-10-07T15:54:12.104Z,19.50
2022-10-07T15:56:40.502Z,19.50
2022-10-07T15:59:10.456Z,19.50
2022-10-07T16:01:39.230Z,19.50
2022-10-07T16:04:13.389Z,19.50
2022-10-07T16:06:42.359Z,19.40
2022-10-07T16:09:11.843Z,19.40
2022-10-07T16:11:41.532Z,19.40
2022-10-07T16:14:12.421Z,19.30
2022-10-07T16:16:41.736Z,19.30
2022-10-07T16:19:11.530Z,19.40
2022-10-07T16:21:41.772Z,19.30
2022-10-07T16:24:14.533Z,19.20
2022-10-07T16:26:43.222Z,19.20
2022-10-07T16:29:34.348Z,19.20
2022-10-07T16:32:03.039Z,19.10
2022-10-07T16:34:35.537Z,19.00
2022-10-07T16:37:05.860Z,18.90
2022-10-07T16:39:34.271Z,18.90
2022-10-07T16:42:02.646Z,18.90
2022-10-07T16:44:32.424Z,18.80
2022-10-07T16:47:01.408Z,18.80
2022-10-07T16:49:36.502Z,18.70
2022-10-07T16:52:06.376Z,18.70
2022-10-07T16:54:35.572Z,18.60
2022-10-07T16:57:04.411Z,18.60
2022-10-07T16:59:34.610Z,18.50
2022-10-07T17:02:05.018Z,18.50
2022-10-07T17:04:33.888Z,18.40
2022-10-07T17:07:07.773Z,18.30
2022-10-07T17:09:36.837Z,18.20
2022-10-07T17:12:06.820Z,18.20
2022-10-07T17:14:38.551Z,18.20
2022-10-07T17:17:07.862Z,18.20
2022-10-07T17:19:36.700Z,18.20
2022-10-07T17:22:05.290Z,18.10
2022-10-07T17:24:35.456Z,18.20
2022-10-07T17:27:07.811Z,18.20
2022-10-07T17:29:39.093Z,18.00
2022-10-07T17:32:09.793Z,17.80
2022-10-07T17:34:41.917Z,17.60
2022-10-07T17:37:13.065Z,17.60
2022-10-07T17:39:41.302Z,17.60
2022-10-07T17:42:09.583Z,17.60
2022-10-07T17:44:39.412Z,17.60
2022-10-07T17:47:07.816Z,17.60
2022-10-07T17:49:36.052Z,17.40
2022-10-07T17:52:04.386Z,17.30
2022-10-07T17:54:32.657Z,17.10
2022-10-07T17:57:00.931Z,17.00
2022-10-07T17:59:29.324Z,16.80
2022-10-07T18:01:59.003Z,16.80
2022-10-07T18:04:27.494Z,16.80
2022-10-07T18:06:56.181Z,16.70
2022-10-07T18:09:24.505Z,16.70
2022-10-07T18:12:10.194Z,16.80
2022-10-07T18:14:56.076Z,16.90
2022-10-07T18:17:25.755Z,16.90
2022-10-07T18:19:54.133Z,17.00
2022-10-07T18:22:22.494Z,17.00
2022-10-07T18:24:50.825Z,17.00
2022-10-07T18:27:27.327Z,16.90
2022-10-07T18:29:56.602Z,16.80
2022-10-07T18:32:26.579Z,16.80
2022-10-07T18:34:54.890Z,16.80
2022-10-07T18:37:23.893Z,16.80
2022-10-07T18:39:52.481Z,16.80
2022-10-07T18:42:20.800Z,16.80
2022-10-07T18:44:50.303Z,16.80
2022-10-07T18:47:18.772Z,16.80
2022-10-07T18:49:48.549Z,16.80
2022-10-07T18:52:17.999Z,16.70
2022-10-07T18:54:46.309Z,16.70
2022-10-07T18:57:14.901Z,16.60
2022-10-07T18:59:43.313Z,16.50
2022-10-07T19:02:12.435Z,16.50
2022-10-07T19:04:41.215Z,16.40
2022-10-07T19:07:11.159Z,16.40
2022-10-07T19:09:39.525Z,16.30
2022-10-07T19:12:28.384Z,16.20
2022-10-07T19:14:55.956Z,15.90
2022-10-07T19:17:24.273Z,15.70
2022-10-07T19:19:52.956Z,15.50
2022-10-07T19:22:22.638Z,15.40
2022-10-07T19:25:08.889Z,15.30
2022-10-07T19:27:38.608Z,15.30
2022-10-07T19:30:08.622Z,15.30
2022-10-07T19:32:36.952Z,15.40
2022-10-07T19:35:06.233Z,15.50
2022-10-07T19:37:35.831Z,15.50
2022-10-07T19:40:04.347Z,15.30
2022-10-07T19:42:32.648Z,15.00
2022-10-07T19:45:00.962Z,14.60
2022-10-07T19:47:29.959Z,14.30
2022-10-07T19:49:58.208Z,14.20
2022-10-07T19:52:27.413Z,14.00
2022-10-07T19:54:57.152Z,13.90
2022-10-07T19:57:25.675Z,13.80
2022-10-07T19:59:54.064Z,13.70
2022-10-07T20:02:22.380Z,13.60
2022-10-07T20:04:50.663Z,13.60
2022-10-07T20:07:19.480Z,13.70
2022-10-07T20:09:47.731Z,13.80
2022-10-07T20:12:17.359Z,14.00
2022-10-07T20:14:46.325Z,14.20
2022-10-07T20:17:24.645Z,14.20
2022-10-07T20:19:53.696Z,14.20
2022-10-07T20:22:22.092Z,14.20
2022-10-07T20:24:50.333Z,14.30
2022-10-07T20:27:20.047Z,14.40
2022-10-07T20:30:02.429Z,14.30
2022-10-07T20:32:34.011Z,14.10
2022-10-07T20:35:10.685Z,14.00
2022-10-07T20:37:39.166Z,13.90
2022-10-07T20:40:25.680Z,13.70
2022-10-07T20:42:55.657Z,13.50
2022-10-07T20:45:24.721Z,13.30
2022-10-07T20:47:55.200Z,13.20
2022-10-07T20:50:23.742Z,13.00
2022-10-07T20:52:51.950Z,12.90
2022-10-07T20:55:21.169Z,12.80
2022-10-07T20:57:51.414Z,12.70
2022-10-07T21:00:21.619Z,12.60
2022-10-07T21:02:50.777Z,12.50
2022-10-07T21:05:19.532Z,12.50
2022-10-07T21:07:52.481Z,12.50
2022-10-07T21:10:22.940Z,12.60
2022-10-07T21:12:51.542Z,12.50
2022-10-07T21:15:30.329Z,12.50
2022-10-07T21:17:59.177Z,12.50
2022-10-07T21:20:27.488Z,12.60
2022-10-07T21:22:55.973Z,12.50
2022-10-07T21:25:24.332Z,12.50
2022-10-07T21:27:53.595Z,12.50
2022-10-07T21:30:23.449Z,12.60
2022-10-07T21:32:51.757Z,12.80
2022-10-07T21:35:20.513Z,12.80
2022-10-07T21:37:49.283Z,12.70
2022-10-07T21:40:18.096Z,12.70
2022-10-07T21:42:46.530Z,12.80
2022-10-07T21:45:16.683Z,12.80
2022-10-07T21:47:46.328Z,12.90
2022-10-07T21:50:15.142Z,12.80
2022-10-07T21:52:44.324Z,12.90
2022-10-07T21:55:17.683Z,12.90
2022-10-07T21:57:46.486Z,12.80
2022-10-07T22:00:16.764Z,12.90
2022-10-07T22:02:46.677Z,12.90
2022-10-07T22:05:16.363Z,12.80
2022-10-07T22:08:02.011Z,12.80
2022-10-07T22:10:30.783Z,12.70
2022-10-07T22:12:59.081Z,12.70
2022-10-07T22:15:27.752Z,12.80
2022-10-07T22:17:57.588Z,12.90
2022-10-07T22:20:26.354Z,13.00
2022-10-07T22:22:59.155Z,12.60
2022-10-07T22:25:28.588Z,13.00
2022-10-07T22:27:56.851Z,12.90
2022-10-07T22:30:25.554Z,13.00
2022-10-07T22:32:54.053Z,12.90
2022-10-07T22:35:30.539Z,13.00
2022-10-07T22:37:59.542Z,13.00
2022-10-07T22:40:27.889Z,13.20
2022-10-07T22:42:56.427Z,13.20
2022-10-07T22:45:25.040Z,13.20
2022-10-07T22:47:53.673Z,13.30
2022-10-07T22:50:23.327Z,13.20
2022-10-07T22:52:51.752Z,13.20
2022-10-07T22:55:21.316Z,13.30
2022-10-07T22:57:50.112Z,13.50
2022-10-07T23:00:18.729Z,13.40
2022-10-07T23:02:47.916Z,13.30
2022-10-07T23:05:17.194Z,13.30
2022-10-07T23:07:47.329Z,13.20
2022-10-07T23:10:15.800Z,13.20
2022-10-07T23:12:44.826Z,13.10
2022-10-07T23:15:14.008Z,13.00
2022-10-07T23:17:42.279Z,12.80
2022-10-07T23:20:11.252Z,12.70
2022-10-07T23:22:40.507Z,12.60
2022-10-07T23:25:10.895Z,12.50
2022-10-07T23:27:40.212Z,12.60
2022-10-07T23:30:10.796Z,12.70
2022-10-07T23:32:39.113Z,12.90
2022-10-07T23:35:08.151Z,12.90
2022-10-07T23:37:36.654Z,12.90
2022-10-07T23:40:05.864Z,12.80
2022-10-07T23:42:35.594Z,12.70
2022-10-07T23:45:04.117Z,12.50
2022-10-07T23:47:33.110Z,12.20
2022-10-07T23:50:01.618Z,12.00
2022-10-07T23:52:32.479Z,11.80
2022-10-07T23:55:00.809Z,11.60
2022-10-07T23:57:29.658Z,11.40
2022-10-07T23:59:59.330Z,11.30
